Time,TemperatureF,DewpointF,PressureIn,WindDirection,WindDirectionDegrees,WindSpeedMPH,WindSpeedGustMPH,Humidity,HourlyPrecipIn,Conditions,Clouds,dailyrainin,SoftwareType,DateUTC
2013-09-04 00:12:00,71.0,67.0,29.97,NNW,340,0.0,-999.0,88,-99.99,,,0.00,,2013-09-04 05:12:00,
2013-09-04 00:23:00,70.0,67.0,29.97,NNW,340,0.0,-999.0,89,-99.99,,,0.00,,2013-09-04 05:23:00,
2013-09-04 00:52:00,69.0,66.0,29.96,NNW,341,1.0,-999.0,91,-99.99,,,0.00,,2013-09-04 05:52:00,
2013-09-04 01:12:00,69.0,66.0,29.96,North,349,2.0,-999.0,91,-99.99,,,0.00,,2013-09-04 06:12:00,
2013-09-04 01:22:00,69.0,66.0,29.96,North,354,1.0,-999.0,89,-99.99,,,0.00,,2013-09-04 06:22:00,
2013-09-04 01:52:00,69.0,66.0,29.96,North,354,0.0,-999.0,91,-99.99,,,0.00,,2013-09-04 06:52:00,
2013-09-04 02:02:00,69.0,66.0,29.96,North,354,0.0,-999.0,91,-99.99,,,0.00,,2013-09-04 07:02:00,
2013-09-04 02:11:00,69.0,66.0,29.96,North,354,0.0,-999.0,91,-99.99,,,0.00,,2013-09-04 07:11:00,
2013-09-04 02:22:00,69.0,66.0,29.96,NE,47,1.0,-999.0,91,-99.99,,,0.00,,2013-09-04 07:22:00,
2013-09-04 02:52:00,69.0,66.0,29.96,WNW,303,0.0,-999.0,89,-99.99,,,0.00,,2013-09-04 07:52:00,
2013-09-04 03:02:00,69.0,66.0,29.96,WNW,303,0.0,-999.0,89,-99.99,,,0.00,,2013-09-04 08:02:00,
2013-09-04 03:12:00,69.0,66.0,29.96,WNW,303,0.0,-999.0,89,-99.99,,,0.00,,2013-09-04 08:12:00,
2013-09-04 03:22:00,68.0,65.0,29.96,SW,231,0.0,-999.0,91,-99.99,,,0.00,,2013-09-04 08:22:00,
2013-09-04 03:52:00,67.0,65.0,29.97,SW,231,0.0,-999.0,93,-99.99,,,0.00,,2013-09-04 08:52:00,
2013-09-04 04:01:00,67.0,65.0,29.97,SW,231,0.0,-999.0,93,-99.99,,,0.00,,2013-09-04 09:01:00,
2013-09-04 04:11:00,67.0,65.0,29.97,SW,231,0.0,-999.0,93,-99.99,,,0.00,,2013-09-04 09:11:00,
2013-09-04 04:22:00,66.0,64.0,29.98,SW,231,0.0,-999.0,94,-99.99,,,0.00,,2013-09-04 09:22:00,
2013-09-04 04:43:00,66.0,65.0,29.98,SW,231,0.0,-999.0,95,-99.99,,,0.00,,2013-09-04 09:43:00,
2013-09-04 04:53:00,66.0,65.0,29.98,SW,231,0.0,-999.0,95,-99.99,,,0.00,,2013-09-04 09:53:00,
2013-09-04 05:03:00,66.0,65.0,29.98,SW,231,0.0,-999.0,95,-99.99,,,0.00,,2013-09-04 10:03:00,
2013-09-04 05:12:00,66.0,65.0,29.98,SW,231,0.0,-999.0,95,-99.99,,,0.00,,2013-09-04 10:12:00,
2013-09-04 05:23:00,65.0,64.0,29.99,SW,231,0.0,-999.0,95,-99.99,,,0.00,,2013-09-04 10:23:00,
2013-09-04 05:33:00,65.0,64.0,29.99,SW,231,0.0,-999.0,95,-99.99,,,0.00,,2013-09-04 10:33:00,
2013-09-04 05:52:00,65.0,64.0,30.00,SW,231,0.0,-999.0,96,-99.99,,,0.00,,2013-09-04 10:52:00,
2013-09-04 06:12:00,65.0,64.0,30.01,SW,231,0.0,-999.0,96,-99.99,,,0.00,,2013-09-04 11:12:00,
2013-09-04 06:22:00,65.0,64.0,30.01,SW,231,0.0,-999.0,96,-99.99,,,0.00,,2013-09-04 11:22:00,
2013-09-04 06:52:00,65.0,64.0,30.02,SW,231,0.0,-999.0,96,-99.99,,,0.00,,2013-09-04 11:52:00,
2013-09-04 07:11:00,65.0,64.0,30.03,SW,231,0.0,-999.0,96,-99.99,,,0.00,,2013-09-04 12:11:00,
2013-09-04 07:21:00,65.0,64.0,30.03,SW,231,0.0,-999.0,96,-99.99,,,0.00,,2013-09-04 12:21:00,
2013-09-04 07:52:00,66.0,65.0,30.05,SW,231,0.0,-999.0,97,-99.99,,,0.00,,2013-09-04 12:52:00,
2013-09-04 08:11:00,66.0,65.0,30.05,SW,231,0.0,-999.0,97,-99.99,,,0.00,,2013-09-04 13:11:00,
2013-09-04 08:22:00,68.0,67.0,30.04,SW,231,0.0,-999.0,97,-99.99,,,0.00,,2013-09-04 13:22:00,
2013-09-04 08:31:00,68.0,67.0,30.04,SW,231,0.0,-999.0,97,-99.99,,,0.00,,2013-09-04 13:31:00,
2013-09-04 08:52:00,68.0,67.0,30.04,SW,231,0.0,-999.0,97,-99.99,,,0.00,,2013-09-04 13:52:00,
2013-09-04 09:21:00,74.0,69.0,30.05,SW,231,0.0,-999.0,85,-99.99,,,0.00,,2013-09-04 14:21:00,
2013-09-04 09:52:00,76.0,70.0,30.04,ESE,111,0.0,-999.0,81,-99.99,,,0.00,,2013-09-04 14:52:00,
2013-09-04 10:02:00,76.0,70.0,30.04,ESE,111,0.0,-999.0,81,-99.99,,,0.00,,2013-09-04 15:02:00,
2013-09-04 10:12:00,76.0,70.0,30.04,ESE,111,0.0,-999.0,81,-99.99,,,0.00,,2013-09-04 15:12:00,
2013-09-04 10:22:00,80.0,69.0,30.04,NW,326,0.0,-999.0,70,-99.99,,,0.00,,2013-09-04 15:22:00,
2013-09-04 10:53:00,82.0,67.0,30.03,East,82,2.0,-999.0,60,-99.99,,,0.00,,2013-09-04 15:53:00,
2013-09-04 11:12:00,84.0,69.0,30.03,East,97,2.0,-999.0,60,-99.99,,,0.00,,2013-09-04 16:12:00,
2013-09-04 11:23:00,85.0,67.0,30.03,East,95,1.0,-999.0,55,-99.99,,,0.00,,2013-09-04 16:23:00,
2013-09-04 11:53:00,84.0,67.0,30.03,NNW,330,3.0,-999.0,56,-99.99,,,0.00,,2013-09-04 16:53:00,
2013-09-04 12:13:00,84.0,65.0,30.03,East,89,2.0,-999.0,53,-99.99,,,0.00,,2013-09-04 17:13:00,
2013-09-04 12:23:00,85.0,65.0,30.03,NNW,330,2.0,-999.0,52,-99.99,,,0.00,,2013-09-04 17:23:00,
2013-09-04 12:52:00,84.0,64.0,30.02,NW,317,3.0,-999.0,51,-99.99,,,0.00,,2013-09-04 17:52:00,
2013-09-04 13:13:00,85.0,66.0,30.02,East,93,4.0,-999.0,53,-99.99,,,0.00,,2013-09-04 18:13:00,
2013-09-04 13:22:00,85.0,65.0,30.02,ENE,69,3.0,-999.0,51,-99.99,,,0.00,,2013-09-04 18:22:00,
2013-09-04 13:52:00,85.0,64.0,30.02,West,265,5.0,-999.0,50,-99.99,,,0.00,,2013-09-04 18:52:00,
2013-09-04 14:11:00,86.0,66.0,30.02,NNW,328,1.0,-999.0,52,-99.99,,,0.00,,2013-09-04 19:11:00,
2013-09-04 14:22:00,86.0,66.0,30.02,NNW,328,1.0,-999.0,52,-99.99,,,0.00,,2013-09-04 19:22:00,
2013-09-04 14:52:00,86.0,64.0,30.00,NW,306,3.0,-999.0,48,-99.99,,,0.00,,2013-09-04 19:52:00,
2013-09-04 15:11:00,86.0,63.0,30.00,WSW,251,4.0,-999.0,47,-99.99,,,0.00,,2013-09-04 20:11:00,
2013-09-04 15:22:00,86.0,65.0,29.99,ENE,65,3.0,-999.0,50,-99.99,,,0.00,,2013-09-04 20:22:00,
2013-09-04 15:53:00,87.0,65.0,29.98,ENE,60,2.0,-999.0,48,-99.99,,,0.00,,2013-09-04 20:53:00,
2013-09-04 16:11:00,88.0,64.0,29.98,East,89,1.0,-999.0,45,-99.99,,,0.00,,2013-09-04 21:11:00,
2013-09-04 16:22:00,86.0,63.0,29.97,NNW,332,5.0,-999.0,46,-99.99,,,0.00,,2013-09-04 21:22:00,
2013-09-04 16:54:00,87.0,67.0,29.98,NNW,328,2.0,-999.0,52,-99.99,,,0.00,,2013-09-04 21:54:00,
2013-09-04 17:00:00,86.0,67.0,29.97,East,82,2.0,-999.0,54,-99.99,,,0.00,,2013-09-04 22:00:00,
2013-09-04 17:14:00,86.0,66.0,29.97,East,97,2.0,-999.0,52,-99.99,,,0.00,,2013-09-04 22:14:00,
2013-09-04 17:23:00,86.0,67.0,29.97,East,82,2.0,-999.0,54,-99.99,,,0.00,,2013-09-04 22:23:00,
2013-09-04 17:33:00,86.0,67.0,29.97,East,82,2.0,-999.0,54,-99.99,,,0.00,,2013-09-04 22:33:00,
2013-09-04 17:55:00,86.0,67.0,29.97,East,82,2.0,-999.0,54,-99.99,,,0.00,,2013-09-04 22:55:00,
2013-09-04 18:22:00,86.0,66.0,29.98,NNE,25,1.0,-999.0,52,-99.99,,,0.00,,2013-09-04 23:22:00,
2013-09-04 18:52:00,85.0,68.0,29.97,NNE,12,0.0,-999.0,57,-99.99,,,0.00,,2013-09-04 23:52:00,
2013-09-04 19:11:00,82.0,69.0,29.98,NNE,12,0.0,-999.0,64,-99.99,,,0.00,,2013-09-05 00:11:00,
2013-09-04 19:22:00,82.0,69.0,29.98,NNE,12,0.0,-999.0,64,-99.99,,,0.00,,2013-09-05 00:22:00,
2013-09-04 19:32:00,82.0,69.0,29.98,NNE,12,0.0,-999.0,64,-99.99,,,0.00,,2013-09-05 00:32:00,
2013-09-04 19:42:00,82.0,69.0,29.98,NNE,12,0.0,-999.0,64,-99.99,,,0.00,,2013-09-05 00:42:00,
2013-09-04 19:52:00,76.0,67.0,30.00,NNE,13,0.0,-999.0,75,-99.99,,,0.00,,2013-09-05 00:52:00,
2013-09-04 20:12:00,74.0,66.0,30.01,NNE,12,0.0,-999.0,77,-99.99,,,0.00,,2013-09-05 01:12:00,
2013-09-04 20:22:00,73.0,66.0,30.02,NNE,12,0.0,-999.0,80,-99.99,,,0.00,,2013-09-05 01:22:00,
2013-09-04 20:42:00,73.0,67.0,30.02,NNE,12,0.0,-999.0,81,-99.99,,,0.00,,2013-09-05 01:42:00,
2013-09-04 20:52:00,72.0,66.0,30.03,NNE,12,0.0,-999.0,81,-99.99,,,0.00,,2013-09-05 01:52:00,
2013-09-04 21:11:00,71.0,66.0,30.04,NNE,12,0.0,-999.0,83,-99.99,,,0.00,,2013-09-05 02:11:00,
2013-09-04 21:22:00,71.0,66.0,30.05,NNE,12,0.0,-999.0,85,-99.99,,,0.00,,2013-09-05 02:22:00,
2013-09-04 22:22:00,69.0,66.0,30.06,NNE,12,0.0,-999.0,89,-99.99,,,0.00,,2013-09-05 03:22:00,
2013-09-04 22:45:00,68.0,65.0,30.07,NNE,12,0.0,-999.0,90,-99.99,,,0.00,,2013-09-05 03:45:00,
2013-09-04 22:54:00,68.0,65.0,30.07,NNE,12,0.0,-999.0,90,-99.99,,,0.00,,2013-09-05 03:54:00,
2013-09-04 23:13:00,67.0,64.0,30.09,NNE,15,1.0,-999.0,91,-99.99,,,0.00,,2013-09-05 04:13:00,
2013-09-04 23:24:00,67.0,64.0,30.09,North,359,0.0,-999.0,91,-99.99,,,0.00,,2013-09-05 04:24:00,
2013-09-04 23:53:00,67.0,65.0,30.08,North,359,0.0,-999.0,92,-99.99,,,0.00,,2013-09-05 04:53:00,